Tenerife / Sur Reina, Spain
Current Conditions -  °F | °C
As of 5:00 PM on Saturday 20 Dec 2014 (Local Time) from GCTS Reporting Station
Few Clouds Few Clouds  
Wind Chill: 70°   Ceiling: Unl
Heat Index: 70°   Visibility: 6mi
Dew Point: 57°   Wind: 22mph
Humidity: 64%   Direction: 70°ENE
Pressure: 30.3"   Gusts: NA
Location:  28.05°N, 16.57°W
Report Text: GCTS 201700Z 07019KT 9999 FEW025 21/14 Q1026 NOSIG
Loading
Personal Weather Stations






























Interactive Weather Map New forecast layout! Learn more

10-Day Weather Forecast

Advertisements
Track Severe Weather on mobile